createdAt,value
2018-02-15T00:01:27.450Z,2.95
2018-02-15T00:03:57.805Z,2.96
2018-02-15T00:06:27.986Z,2.95
2018-02-15T00:08:58.430Z,3.08
2018-02-15T00:11:28.904Z,3.21
2018-02-15T00:13:59.315Z,3.24
2018-02-15T00:16:29.505Z,3.21
2018-02-15T00:18:59.960Z,3.21
2018-02-15T00:21:29.881Z,3.30
2018-02-15T00:24:00.380Z,3.33
2018-02-15T00:26:30.954Z,3.32
2018-02-15T00:29:01.387Z,3.30
2018-02-15T00:31:31.755Z,3.38
2018-02-15T00:34:02.034Z,3.36
2018-02-15T00:36:32.251Z,3.33
2018-02-15T00:39:02.026Z,3.35
2018-02-15T00:41:32.101Z,3.36
2018-02-15T00:44:02.343Z,3.34
2018-02-15T00:46:32.965Z,3.27
2018-02-15T00:49:03.680Z,3.28
2018-02-15T00:51:34.158Z,3.23
2018-02-15T00:54:04.794Z,3.14
2018-02-15T00:56:35.303Z,3.13
2018-02-15T00:59:05.777Z,3.17
2018-02-15T01:01:36.463Z,3.18
2018-02-15T01:04:06.456Z,3.20
2018-02-15T01:06:37.039Z,3.10
2018-02-15T01:09:06.930Z,3.10
2018-02-15T01:11:37.475Z,3.03
2018-02-15T01:14:08.210Z,2.84
2018-02-15T01:16:38.566Z,2.90
2018-02-15T01:19:08.523Z,2.78
2018-02-15T01:21:38.860Z,2.64
2018-02-15T01:24:09.024Z,2.61
2018-02-15T01:26:39.659Z,2.65
2018-02-15T01:29:10.469Z,2.61
2018-02-15T01:31:40.944Z,2.51
2018-02-15T01:34:11.228Z,2.43
2018-02-15T01:36:41.661Z,2.48
2018-02-15T01:39:12.092Z,2.38
2018-02-15T01:41:42.825Z,2.45
2018-02-15T01:44:12.902Z,2.50
2018-02-15T01:46:43.400Z,2.43
2018-02-15T01:49:13.970Z,2.41
2018-02-15T01:51:44.405Z,2.46
2018-02-15T01:54:14.592Z,2.48
2018-02-15T01:56:44.414Z,2.42
2018-02-15T01:59:14.626Z,2.28
2018-02-15T02:01:45.132Z,2.31
2018-02-15T02:04:15.483Z,2.38
2018-02-15T02:06:46.464Z,2.41
2018-02-15T02:09:16.780Z,2.45
2018-02-15T02:11:46.925Z,2.40
2018-02-15T02:14:17.318Z,2.43
2018-02-15T02:16:47.997Z,2.42
2018-02-15T02:19:18.254Z,2.41
2018-02-15T02:21:48.643Z,2.37
2018-02-15T02:24:19.025Z,2.31
2018-02-15T02:26:49.375Z,2.31
2018-02-15T02:29:19.496Z,2.27
2018-02-15T02:31:50.425Z,2.35
2018-02-15T02:34:20.996Z,2.25
2018-02-15T02:36:51.327Z,2.21
2018-02-15T02:39:21.825Z,2.13
2018-02-15T02:41:52.321Z,2.20
2018-02-15T02:44:22.322Z,2.22
2018-02-15T02:46:52.805Z,2.20
2018-02-15T02:49:23.118Z,2.19
2018-02-15T02:51:53.550Z,2.07
2018-02-15T02:54:23.290Z,1.98
2018-02-15T02:56:53.733Z,1.96
2018-02-15T02:59:24.359Z,1.95
2018-02-15T03:01:54.785Z,1.87
2018-02-15T03:04:24.899Z,1.92
2018-02-15T03:06:55.628Z,1.94
2018-02-15T03:09:25.549Z,1.83
2018-02-15T03:11:56.736Z,1.81
2018-02-15T03:14:26.978Z,1.84
2018-02-15T03:16:57.144Z,1.80
2018-02-15T03:19:27.473Z,1.85
2018-02-15T03:21:57.831Z,1.86
2018-02-15T03:24:28.232Z,1.84
2018-02-15T03:26:58.507Z,1.82
2018-02-15T03:29:28.910Z,1.65
2018-02-15T03:31:58.930Z,1.41
2018-02-15T03:34:29.162Z,1.35
2018-02-15T03:36:59.415Z,1.28
2018-02-15T03:39:30.134Z,1.26
2018-02-15T03:42:01.293Z,1.26
2018-02-15T03:44:31.077Z,1.13
2018-02-15T03:47:01.394Z,1.02
2018-02-15T03:49:31.674Z,0.88
2018-02-15T03:52:02.051Z,0.79
2018-02-15T03:54:33.233Z,0.72
2018-02-15T03:57:03.826Z,0.75
2018-02-15T03:59:47.249Z,0.84
2018-02-15T04:02:29.839Z,1.05
2018-02-15T04:05:00.487Z,0.96
2018-02-15T04:07:30.792Z,0.88
2018-02-15T04:10:01.148Z,0.84
2018-02-15T04:12:31.301Z,1.02
2018-02-15T04:15:01.694Z,1.00
2018-02-15T04:17:32.002Z,1.06
2018-02-15T04:20:02.288Z,1.00
2018-02-15T04:22:32.845Z,1.02
2018-02-15T04:25:03.276Z,1.00
2018-02-15T04:27:33.665Z,1.07
2018-02-15T04:30:03.453Z,1.04
2018-02-15T04:32:33.790Z,1.10
2018-02-15T04:35:04.113Z,1.08
2018-02-15T04:37:34.846Z,1.11
2018-02-15T04:40:05.493Z,1.01
2018-02-15T04:42:35.859Z,1.09
2018-02-15T04:45:06.319Z,1.21
2018-02-15T04:47:36.754Z,1.19
2018-02-15T04:50:07.042Z,1.21
2018-02-15T04:52:37.183Z,1.22
2018-02-15T04:55:07.643Z,1.09
2018-02-15T04:57:37.802Z,1.11
2018-02-15T05:00:08.407Z,1.15
2018-02-15T05:02:38.746Z,1.10
2018-02-15T05:05:09.147Z,1.11
2018-02-15T05:07:38.876Z,0.99
2018-02-15T05:10:08.680Z,0.97
2018-02-15T05:12:38.455Z,1.00
2018-02-15T05:15:08.186Z,1.01
2018-02-15T05:17:37.934Z,1.04
2018-02-15T05:20:07.790Z,1.02
2018-02-15T05:22:37.565Z,1.04
2018-02-15T05:25:07.387Z,1.02
2018-02-15T05:27:37.100Z,1.13
2018-02-15T05:30:06.868Z,1.08
2018-02-15T05:32:36.715Z,1.19
2018-02-15T05:35:06.463Z,1.26
2018-02-15T05:37:36.179Z,1.39
2018-02-15T05:40:05.909Z,1.26
2018-02-15T05:42:35.779Z,1.26
2018-02-15T05:45:05.526Z,1.25
2018-02-15T05:47:35.299Z,1.19
2018-02-15T05:50:05.057Z,1.08
2018-02-15T05:52:34.781Z,1.05
2018-02-15T05:55:04.578Z,1.05
2018-02-15T05:57:34.356Z,1.06
2018-02-15T06:00:04.119Z,1.01
2018-02-15T06:02:33.855Z,1.09
2018-02-15T06:05:03.782Z,1.16
2018-02-15T06:07:33.496Z,1.20
2018-02-15T06:10:03.359Z,1.23
2018-02-15T06:12:33.139Z,1.32
2018-02-15T06:15:02.991Z,1.37
2018-02-15T06:17:32.852Z,1.50
2018-02-15T06:20:02.585Z,1.77
2018-02-15T06:22:32.428Z,1.89
2018-02-15T06:25:02.154Z,2.06
2018-02-15T06:27:32.053Z,2.15
2018-02-15T06:30:01.859Z,2.31
2018-02-15T06:32:31.632Z,2.45
2018-02-15T06:35:01.432Z,2.49
2018-02-15T06:37:31.213Z,2.57
2018-02-15T06:40:01.030Z,2.53
2018-02-15T06:42:30.823Z,2.54
2018-02-15T06:45:00.573Z,2.74
2018-02-15T06:47:30.391Z,2.78
2018-02-15T06:50:00.216Z,2.89
2018-02-15T06:52:30.002Z,3.00
2018-02-15T06:54:59.797Z,2.97
2018-02-15T06:57:29.589Z,2.95
2018-02-15T06:59:59.433Z,3.08
2018-02-15T07:02:29.220Z,3.12
2018-02-15T07:04:59.064Z,3.25
2018-02-15T07:07:28.879Z,3.36
2018-02-15T07:09:58.623Z,3.46
2018-02-15T07:12:28.430Z,3.64
2018-02-15T07:14:58.247Z,3.79
2018-02-15T07:17:28.105Z,3.91
2018-02-15T07:19:57.901Z,4.03
2018-02-15T07:22:27.838Z,4.19
2018-02-15T07:24:57.670Z,4.37
2018-02-15T07:27:27.554Z,4.39
2018-02-15T07:29:57.417Z,4.34
2018-02-15T07:32:27.248Z,4.49
2018-02-15T07:34:57.120Z,4.64
2018-02-15T07:37:26.910Z,4.82
2018-02-15T07:39:56.676Z,4.92
2018-02-15T07:42:26.561Z,4.79
2018-02-15T07:44:56.308Z,4.96
2018-02-15T07:47:26.118Z,5.04
2018-02-15T07:49:55.968Z,4.92
2018-02-15T07:52:25.835Z,4.99
2018-02-15T07:54:55.744Z,5.07
2018-02-15T07:57:25.541Z,5.12
2018-02-15T07:59:55.459Z,5.21
2018-02-15T08:02:25.255Z,5.33
2018-02-15T08:04:55.063Z,5.57
2018-02-15T08:07:24.888Z,5.77
2018-02-15T08:09:54.705Z,5.70
2018-02-15T08:12:24.543Z,5.75
2018-02-15T08:14:54.346Z,5.87
2018-02-15T08:17:24.185Z,5.93
2018-02-15T08:19:54.068Z,6.01
2018-02-15T08:22:23.876Z,5.98
2018-02-15T08:24:53.606Z,5.98
2018-02-15T08:27:23.421Z,6.27
2018-02-15T08:29:53.297Z,6.36
2018-02-15T08:32:23.133Z,6.50
2018-02-15T08:34:52.924Z,6.34
2018-02-15T08:37:22.686Z,6.40
2018-02-15T08:39:52.447Z,6.12
2018-02-15T08:42:22.311Z,6.24
2018-02-15T08:44:52.109Z,6.39
2018-02-15T08:47:21.902Z,6.22
2018-02-15T08:49:51.717Z,6.25
2018-02-15T08:52:21.542Z,6.49
2018-02-15T08:54:51.369Z,6.40
2018-02-15T08:57:21.165Z,6.44
2018-02-15T08:59:50.984Z,6.50
2018-02-15T09:02:20.802Z,6.35
2018-02-15T09:04:50.608Z,6.59
2018-02-15T09:07:20.387Z,6.67
2018-02-15T09:09:50.185Z,6.56
2018-02-15T09:12:19.990Z,6.88
2018-02-15T09:14:49.786Z,7.01
2018-02-15T09:17:19.637Z,6.87
2018-02-15T09:19:49.570Z,6.93
2018-02-15T09:22:19.420Z,7.17
2018-02-15T09:24:49.234Z,7.08
2018-02-15T09:27:19.033Z,7.37
2018-02-15T09:29:49.002Z,7.65
2018-02-15T09:32:18.936Z,7.93
2018-02-15T09:34:48.820Z,7.57
2018-02-15T09:37:18.615Z,7.83
2018-02-15T09:39:48.496Z,8.09
2018-02-15T09:42:18.357Z,7.82
2018-02-15T09:44:48.146Z,8.00
2018-02-15T09:47:17.979Z,8.15
2018-02-15T09:49:47.807Z,8.22
2018-02-15T09:52:17.662Z,8.60
2018-02-15T09:54:47.497Z,8.73
2018-02-15T09:57:17.319Z,8.83
2018-02-15T09:59:47.255Z,8.75
2018-02-15T10:02:17.066Z,8.67
2018-02-15T10:04:46.868Z,8.82
2018-02-15T10:07:16.668Z,9.07
2018-02-15T10:09:46.530Z,9.32
2018-02-15T10:12:16.433Z,9.32
2018-02-15T10:14:46.219Z,9.56
2018-02-15T10:17:16.076Z,9.27
2018-02-15T10:19:45.942Z,9.49
2018-02-15T10:22:15.807Z,9.97
2018-02-15T10:24:45.614Z,10.07
2018-02-15T10:27:15.429Z,9.76
2018-02-15T10:29:45.243Z,10.42
2018-02-15T10:32:15.052Z,10.88
2018-02-15T10:34:44.924Z,10.78
2018-02-15T10:37:14.680Z,10.87
2018-02-15T10:39:44.515Z,9.94
2018-02-15T10:42:14.309Z,9.58
2018-02-15T10:44:44.104Z,9.49
2018-02-15T10:47:13.864Z,9.89
2018-02-15T10:49:43.614Z,10.22
2018-02-15T10:52:13.487Z,10.34
2018-02-15T10:54:43.287Z,10.07
2018-02-15T10:57:13.139Z,10.37
2018-02-15T10:59:43.099Z,11.30
2018-02-15T11:02:18.465Z,10.87
2018-02-15T11:04:53.964Z,10.28
2018-02-15T11:07:23.777Z,10.45
2018-02-15T11:09:53.634Z,10.07
2018-02-15T11:12:23.511Z,10.36
2018-02-15T11:14:53.377Z,11.04
2018-02-15T11:17:23.209Z,11.82
2018-02-15T11:19:53.015Z,12.50
2018-02-15T11:22:22.898Z,12.03
2018-02-15T11:24:52.701Z,11.80
2018-02-15T11:27:22.530Z,11.60
2018-02-15T11:29:52.294Z,11.89
2018-02-15T11:32:22.053Z,12.32
2018-02-15T11:34:51.842Z,12.31
2018-02-15T11:37:21.594Z,12.50
2018-02-15T11:39:51.486Z,11.47
2018-02-15T11:42:21.260Z,11.43
2018-02-15T11:44:51.077Z,11.25
2018-02-15T11:47:20.916Z,11.81
2018-02-15T11:49:50.717Z,11.97
2018-02-15T11:52:20.540Z,12.13
2018-02-15T11:54:50.423Z,11.64
2018-02-15T11:57:20.259Z,12.28
2018-02-15T11:59:50.044Z,12.40
2018-02-15T12:02:19.860Z,11.96
2018-02-15T12:04:49.698Z,11.98
2018-02-15T12:07:19.453Z,12.26
2018-02-15T12:09:49.257Z,11.45
2018-02-15T12:12:19.973Z,11.99
2018-02-15T12:14:49.867Z,11.31
2018-02-15T12:17:19.765Z,11.54
2018-02-15T12:19:49.676Z,11.43
2018-02-15T12:22:19.546Z,12.09
2018-02-15T12:24:49.360Z,12.54
2018-02-15T12:27:19.106Z,12.86
2018-02-15T12:29:48.959Z,11.98
2018-02-15T12:32:18.829Z,11.43
2018-02-15T12:34:48.659Z,11.86
2018-02-15T12:37:18.488Z,12.31
2018-02-15T12:39:48.386Z,11.52
2018-02-15T12:42:18.237Z,12.04
2018-02-15T12:44:48.027Z,12.31
2018-02-15T12:47:17.884Z,12.18
2018-02-15T12:49:47.740Z,12.01
2018-02-15T12:52:17.545Z,11.96
2018-02-15T12:54:47.380Z,11.81
2018-02-15T12:57:17.287Z,12.09
2018-02-15T12:59:47.182Z,12.46
2018-02-15T13:02:17.041Z,12.61
2018-02-15T13:04:46.835Z,11.95
2018-02-15T13:07:16.615Z,11.76
2018-02-15T13:09:46.371Z,11.58
2018-02-15T13:12:27.866Z,11.67
2018-02-15T13:14:57.644Z,11.58
2018-02-15T13:17:27.443Z,11.67
2018-02-15T13:20:09.103Z,11.49
2018-02-15T13:22:47.780Z,11.19
2018-02-15T13:25:17.637Z,11.22
2018-02-15T13:27:59.172Z,10.97
2018-02-15T13:30:29.048Z,10.59
2018-02-15T13:32:58.839Z,10.57
2018-02-15T13:35:28.626Z,10.63
2018-02-15T13:37:58.403Z,10.83
2018-02-15T13:40:28.202Z,10.71
2018-02-15T13:42:57.982Z,10.71
2018-02-15T13:45:27.740Z,11.21
2018-02-15T13:47:57.549Z,11.33
2018-02-15T13:50:27.386Z,11.44
2018-02-15T13:52:57.242Z,11.34
2018-02-15T13:55:27.115Z,10.99
2018-02-15T13:57:56.941Z,10.85
2018-02-15T14:00:26.796Z,10.93
2018-02-15T14:02:56.537Z,10.93
2018-02-15T14:05:26.278Z,11.01
2018-02-15T14:07:56.047Z,10.99
2018-02-15T14:10:25.803Z,10.63
2018-02-15T14:12:55.748Z,10.51
2018-02-15T14:15:25.528Z,10.35
2018-02-15T14:17:55.403Z,10.20
2018-02-15T14:20:25.251Z,10.29
2018-02-15T14:22:55.027Z,10.17
2018-02-15T14:25:24.787Z,10.11
2018-02-15T14:27:54.575Z,10.25
2018-02-15T14:30:24.368Z,10.16
2018-02-15T14:32:54.209Z,10.04
2018-02-15T14:35:24.109Z,9.87
2018-02-15T14:37:53.900Z,10.06
2018-02-15T14:40:23.780Z,10.14
2018-02-15T14:42:53.599Z,10.33
2018-02-15T14:45:23.364Z,10.54
2018-02-15T14:47:53.171Z,10.45
2018-02-15T14:50:23.018Z,10.69
2018-02-15T14:52:52.880Z,10.68
2018-02-15T14:55:23.429Z,10.71
2018-02-15T14:57:53.938Z,10.71
2018-02-15T15:00:24.154Z,10.36
2018-02-15T15:02:54.453Z,10.34
2018-02-15T15:05:24.712Z,10.33
2018-02-15T15:07:54.802Z,10.40
2018-02-15T15:10:24.820Z,10.29
2018-02-15T15:12:55.086Z,10.32
2018-02-15T15:15:25.718Z,10.31
2018-02-15T15:17:55.522Z,10.37
2018-02-15T15:20:25.333Z,10.31
2018-02-15T15:22:55.113Z,10.34
2018-02-15T15:25:24.852Z,10.21
2018-02-15T15:27:54.620Z,10.16
2018-02-15T15:30:24.427Z,9.86
2018-02-15T15:32:54.232Z,9.70
2018-02-15T15:35:24.041Z,9.55
2018-02-15T15:37:53.793Z,9.23
2018-02-15T15:40:23.635Z,9.13
2018-02-15T15:42:53.535Z,9.18
2018-02-15T15:45:23.346Z,9.20
2018-02-15T15:47:53.087Z,9.23
2018-02-15T15:50:22.858Z,9.20
2018-02-15T15:52:52.757Z,9.13
2018-02-15T15:55:22.580Z,8.92
2018-02-15T15:57:52.420Z,8.96
2018-02-15T16:00:22.263Z,8.91
2018-02-15T16:02:52.042Z,8.77
2018-02-15T16:05:21.849Z,8.32
2018-02-15T16:07:51.604Z,7.99
2018-02-15T16:10:21.387Z,7.70
2018-02-15T16:12:51.159Z,7.82
2018-02-15T16:15:20.945Z,7.89
2018-02-15T16:17:50.810Z,7.76
2018-02-15T16:20:20.612Z,7.60
2018-02-15T16:22:50.436Z,7.49
2018-02-15T16:25:20.192Z,7.50
2018-02-15T16:27:50.031Z,7.49
2018-02-15T16:30:19.793Z,7.51
2018-02-15T16:32:49.560Z,7.50
2018-02-15T16:35:19.431Z,7.48
2018-02-15T16:37:49.216Z,7.45
2018-02-15T16:40:19.028Z,7.46
2018-02-15T16:42:48.749Z,7.42
2018-02-15T16:45:18.475Z,7.46
2018-02-15T16:47:48.299Z,7.56
2018-02-15T16:50:18.133Z,7.63
2018-02-15T16:52:47.988Z,7.68
2018-02-15T16:55:17.801Z,7.72
2018-02-15T16:57:47.616Z,7.78
2018-02-15T17:00:17.417Z,7.79
2018-02-15T17:02:47.172Z,7.78
2018-02-15T17:05:17.043Z,7.71
2018-02-15T17:07:46.797Z,7.72
2018-02-15T17:10:16.599Z,7.70
2018-02-15T17:12:46.377Z,7.72
2018-02-15T17:15:16.290Z,7.71
2018-02-15T17:17:46.140Z,7.74
2018-02-15T17:20:15.959Z,7.71
2018-02-15T17:22:45.715Z,7.63
2018-02-15T17:25:15.467Z,7.59
2018-02-15T17:27:45.267Z,7.61
2018-02-15T17:30:15.135Z,7.49
2018-02-15T17:32:44.925Z,7.43
2018-02-15T17:35:14.795Z,7.48
2018-02-15T17:37:44.593Z,7.46
2018-02-15T17:40:14.352Z,7.46
2018-02-15T17:42:44.166Z,7.50
2018-02-15T17:45:14.042Z,7.48
2018-02-15T17:47:43.857Z,7.49
2018-02-15T17:50:13.659Z,7.48
2018-02-15T17:52:43.486Z,7.32
2018-02-15T17:55:13.253Z,7.36
2018-02-15T17:57:43.170Z,7.29
2018-02-15T18:00:13.039Z,7.19
2018-02-15T18:02:43.053Z,7.30
2018-02-15T18:05:12.817Z,7.21
2018-02-15T18:07:42.707Z,7.21
2018-02-15T18:10:12.539Z,6.93
2018-02-15T18:12:42.458Z,6.80
2018-02-15T18:15:12.226Z,6.70
2018-02-15T18:17:42.072Z,6.63
2018-02-15T18:20:11.907Z,6.75
2018-02-15T18:22:41.779Z,7.03
2018-02-15T18:25:11.619Z,7.11
2018-02-15T18:27:41.387Z,7.09
2018-02-15T18:30:11.162Z,7.06
2018-02-15T18:32:41.029Z,7.08
2018-02-15T18:35:10.877Z,7.12
2018-02-15T18:37:40.726Z,6.88
2018-02-15T18:40:10.501Z,6.81
2018-02-15T18:42:40.335Z,6.95
2018-02-15T18:45:10.121Z,6.99
2018-02-15T18:47:39.989Z,7.04
2018-02-15T18:50:10.013Z,6.89
2018-02-15T18:52:39.770Z,6.47
2018-02-15T18:55:09.668Z,6.25
2018-02-15T18:57:39.512Z,6.30
2018-02-15T19:00:09.378Z,6.24
2018-02-15T19:02:39.255Z,6.08
2018-02-15T19:05:09.067Z,6.17
2018-02-15T19:07:38.875Z,6.43
2018-02-15T19:10:08.632Z,6.60
2018-02-15T19:12:38.613Z,6.68
2018-02-15T19:15:08.432Z,6.60
2018-02-15T19:17:38.255Z,6.58
2018-02-15T19:20:08.091Z,6.63
2018-02-15T19:22:37.889Z,6.49
2018-02-15T19:25:07.663Z,6.43
2018-02-15T19:27:37.496Z,6.58
2018-02-15T19:30:07.341Z,6.54
2018-02-15T19:32:37.154Z,6.62
2018-02-15T19:35:07.057Z,6.63
2018-02-15T19:37:37.045Z,6.62
2018-02-15T19:40:06.822Z,6.59
2018-02-15T19:42:36.822Z,6.54
2018-02-15T19:45:06.578Z,6.45
2018-02-15T19:47:36.474Z,6.51
2018-02-15T19:50:06.265Z,6.63
2018-02-15T19:52:36.025Z,6.55
2018-02-15T19:55:06.005Z,6.46
2018-02-15T19:57:35.837Z,6.44
2018-02-15T20:00:05.868Z,6.47
2018-02-15T20:02:35.863Z,6.49
2018-02-15T20:05:05.700Z,6.32
2018-02-15T20:07:35.457Z,5.99
2018-02-15T20:10:05.243Z,5.78
2018-02-15T20:12:34.999Z,5.79
2018-02-15T20:15:04.862Z,5.79
2018-02-15T20:17:34.706Z,6.00
2018-02-15T20:20:20.191Z,6.10
2018-02-15T20:22:50.053Z,6.00
2018-02-15T20:25:19.866Z,5.74
2018-02-15T20:27:55.408Z,5.52
2018-02-15T20:30:25.195Z,5.46
2018-02-15T20:32:55.005Z,5.30
2018-02-15T20:35:24.823Z,5.58
2018-02-15T20:38:00.214Z,5.64
2018-02-15T20:40:35.649Z,5.77
2018-02-15T20:43:05.431Z,5.71
2018-02-15T20:45:35.253Z,5.64
2018-02-15T20:48:05.087Z,5.59
2018-02-15T20:50:40.687Z,5.60
2018-02-15T20:53:16.152Z,5.60
2018-02-15T20:55:46.190Z,5.73
2018-02-15T20:58:16.008Z,5.76
2018-02-15T21:00:45.796Z,5.63
2018-02-15T21:03:15.541Z,5.68
2018-02-15T21:05:45.346Z,5.71
2018-02-15T21:08:15.116Z,5.74
2018-02-15T21:10:44.969Z,5.80
2018-02-15T21:13:14.707Z,5.93
2018-02-15T21:15:44.483Z,5.94
2018-02-15T21:18:14.302Z,5.84
2018-02-15T21:20:44.119Z,5.71
2018-02-15T21:23:13.913Z,5.71
2018-02-15T21:25:43.660Z,5.84
2018-02-15T21:28:13.414Z,5.98
2018-02-15T21:30:43.210Z,5.97
2018-02-15T21:33:12.990Z,5.94
2018-02-15T21:35:42.768Z,5.91
2018-02-15T21:38:12.493Z,5.95
2018-02-15T21:40:42.335Z,5.97
2018-02-15T21:43:12.112Z,6.05
2018-02-15T21:45:41.851Z,5.94
2018-02-15T21:48:11.635Z,5.99
2018-02-15T21:50:41.440Z,5.99
2018-02-15T21:53:11.250Z,5.99
2018-02-15T21:55:41.124Z,5.97
2018-02-15T21:58:11.767Z,5.95
2018-02-15T22:00:41.837Z,5.93
2018-02-15T22:03:12.037Z,5.97
2018-02-15T22:05:45.445Z,6.02
2018-02-15T22:08:15.684Z,5.90
2018-02-15T22:10:46.542Z,5.86
2018-02-15T22:13:17.040Z,5.91
2018-02-15T22:15:47.593Z,5.90
2018-02-15T22:18:17.898Z,5.80
2018-02-15T22:20:48.311Z,5.72
2018-02-15T22:23:18.947Z,5.73
2018-02-15T22:25:49.416Z,5.84
2018-02-15T22:28:19.818Z,5.89
2018-02-15T22:30:50.307Z,5.80
2018-02-15T22:33:20.380Z,5.88
2018-02-15T22:35:50.549Z,5.93
2018-02-15T22:38:20.731Z,5.95
2018-02-15T22:40:51.331Z,5.99
2018-02-15T22:43:22.109Z,6.00
2018-02-15T22:45:52.747Z,6.02
2018-02-15T22:48:22.977Z,5.93
2018-02-15T22:50:53.760Z,5.91
2018-02-15T22:53:24.151Z,5.90
2018-02-15T22:55:54.682Z,5.91
2018-02-15T22:58:24.446Z,5.92
2018-02-15T23:00:55.140Z,5.88
2018-02-15T23:03:25.572Z,5.79
2018-02-15T23:05:56.342Z,5.73
2018-02-15T23:08:26.799Z,5.62
2018-02-15T23:10:57.587Z,5.64
2018-02-15T23:13:27.936Z,5.58
2018-02-15T23:15:58.195Z,5.65
2018-02-15T23:18:28.117Z,5.57
2018-02-15T23:20:58.414Z,5.64
2018-02-15T23:23:28.969Z,5.68
2018-02-15T23:25:59.289Z,5.74
2018-02-15T23:28:29.831Z,5.72
2018-02-15T23:30:59.761Z,5.67
2018-02-15T23:33:29.750Z,5.60
2018-02-15T23:36:00.304Z,5.71
2018-02-15T23:38:30.482Z,5.60
2018-02-15T23:41:01.253Z,5.65
2018-02-15T23:43:31.619Z,5.75
2018-02-15T23:46:02.067Z,5.70
2018-02-15T23:48:32.368Z,5.67
2018-02-15T23:51:02.495Z,5.59
2018-02-15T23:53:32.332Z,5.57
2018-02-15T23:56:02.811Z,5.55
2018-02-15T23:58:33.170Z,5.59
